createdAt,value
2023-05-11T00:03:01.131Z,1.48
2023-05-11T00:06:04.525Z,1.50
2023-05-11T00:09:09.416Z,1.58
2023-05-11T00:12:14.205Z,1.47
2023-05-11T00:15:16.670Z,1.50
2023-05-11T00:18:19.334Z,1.58
2023-05-11T00:21:23.008Z,1.65
2023-05-11T00:24:26.650Z,1.50
2023-05-11T00:27:29.114Z,1.60
2023-05-11T00:30:31.598Z,1.23
2023-05-11T00:33:34.122Z,1.38
2023-05-11T00:36:41.207Z,1.48
2023-05-11T00:39:44.156Z,1.50
2023-05-11T00:42:46.624Z,1.40
2023-05-11T00:45:49.857Z,1.30
2023-05-11T00:48:52.295Z,1.60
2023-05-11T00:51:55.145Z,1.75
2023-05-11T00:54:57.654Z,1.60
2023-05-11T00:58:02.498Z,1.50
2023-05-11T01:01:05.747Z,2.20
2023-05-11T01:04:08.623Z,1.60
2023-05-11T01:07:24.130Z,1.40
2023-05-11T01:10:52.954Z,1.50
2023-05-11T01:14:12.818Z,1.47
2023-05-11T01:17:27.630Z,1.73
2023-05-11T01:20:31.437Z,1.40
2023-05-11T01:23:51.986Z,1.60
2023-05-11T01:27:14.305Z,1.80
2023-05-11T01:30:35.908Z,1.60
2023-05-11T01:33:44.495Z,1.60
2023-05-11T01:36:54.755Z,1.60
2023-05-11T01:39:59.192Z,1.52
2023-05-11T01:43:05.157Z,1.70
2023-05-11T01:46:10.880Z,1.70
2023-05-11T01:49:14.419Z,1.77
2023-05-11T01:52:19.078Z,1.40
2023-05-11T01:55:23.870Z,1.60
2023-05-11T01:58:28.401Z,1.65
2023-05-11T02:01:34.137Z,1.73
2023-05-11T02:04:40.104Z,1.50
2023-05-11T02:07:44.337Z,1.60
2023-05-11T02:10:48.439Z,1.60
2023-05-11T02:13:52.226Z,1.67
2023-05-11T02:16:56.449Z,1.83
2023-05-11T02:20:01.428Z,1.93
2023-05-11T02:23:05.770Z,1.80
2023-05-11T02:26:10.415Z,1.70
2023-05-11T02:29:13.063Z,1.70
2023-05-11T02:32:21.735Z,1.73
2023-05-11T02:35:29.638Z,1.90
2023-05-11T02:38:35.715Z,1.75
2023-05-11T02:41:44.588Z,1.80
2023-05-11T02:44:56.756Z,1.55
2023-05-11T02:48:03.633Z,1.63
2023-05-11T02:51:08.588Z,1.83
2023-05-11T02:54:17.869Z,1.95
2023-05-11T02:57:25.085Z,1.90
2023-05-11T03:00:28.327Z,1.90
2023-05-11T03:03:31.511Z,1.80
2023-05-11T03:06:35.571Z,1.90
2023-05-11T03:09:39.840Z,1.90
2023-05-11T03:12:43.488Z,1.90
2023-05-11T03:15:47.278Z,1.90
2023-05-11T03:18:50.482Z,1.87
2023-05-11T03:21:54.799Z,1.90
2023-05-11T03:24:57.449Z,1.90
2023-05-11T03:28:01.446Z,2.22
2023-05-11T03:31:06.690Z,2.17
2023-05-11T03:34:10.377Z,1.97
2023-05-11T03:37:19.074Z,1.83
2023-05-11T03:40:24.284Z,1.92
2023-05-11T03:43:34.666Z,1.90
2023-05-11T03:46:41.069Z,2.10
2023-05-11T03:49:46.284Z,1.90
2023-05-11T03:52:49.614Z,1.93
2023-05-11T03:55:53.024Z,2.00
2023-05-11T03:58:55.678Z,2.08
2023-05-11T04:01:58.910Z,2.00
2023-05-11T04:05:01.333Z,2.10
2023-05-11T04:08:04.885Z,2.37
2023-05-11T04:11:07.353Z,2.22
2023-05-11T04:14:11.163Z,1.90
2023-05-11T04:17:13.624Z,1.90
2023-05-11T04:20:16.287Z,2.10
2023-05-11T04:23:19.890Z,1.80
2023-05-11T04:26:22.565Z,1.80
2023-05-11T04:29:25.430Z,1.90
2023-05-11T04:32:29.209Z,2.00
2023-05-11T04:35:32.827Z,1.80
2023-05-11T04:38:35.808Z,1.90
2023-05-11T04:41:38.630Z,2.00
2023-05-11T04:44:41.779Z,2.00
2023-05-11T04:47:44.366Z,1.98
2023-05-11T04:50:47.565Z,1.90
2023-05-11T04:53:51.995Z,2.10
2023-05-11T04:56:55.755Z,2.05
2023-05-11T04:59:58.576Z,2.13
2023-05-11T05:03:01.545Z,1.70
2023-05-11T05:06:04.100Z,2.03
2023-05-11T05:09:07.078Z,2.13
2023-05-11T05:12:10.025Z,2.10
2023-05-11T05:15:12.806Z,1.80
2023-05-11T05:18:15.581Z,1.90
2023-05-11T05:21:20.538Z,1.70
2023-05-11T05:24:24.178Z,1.90
2023-05-11T05:27:27.415Z,2.00
2023-05-11T05:30:31.080Z,1.90
2023-05-11T05:33:33.968Z,1.75
2023-05-11T05:36:36.714Z,2.53
2023-05-11T05:39:39.496Z,2.30
2023-05-11T05:42:42.961Z,2.08
2023-05-11T05:45:49.466Z,2.42
2023-05-11T05:48:52.585Z,2.92
2023-05-11T05:51:55.442Z,2.30
2023-05-11T05:54:58.289Z,2.20
2023-05-11T05:58:02.113Z,2.30
2023-05-11T06:01:05.204Z,2.30
2023-05-11T06:04:08.174Z,2.72
2023-05-11T06:07:11.422Z,2.60
2023-05-11T06:10:14.524Z,2.27
2023-05-11T06:13:18.502Z,2.45
2023-05-11T06:16:21.555Z,2.50
2023-05-11T06:19:24.612Z,2.40
2023-05-11T06:22:27.695Z,2.40
2023-05-11T06:25:36.845Z,2.63
2023-05-11T06:28:40.478Z,2.53
2023-05-11T06:31:49.621Z,2.60
2023-05-11T06:34:52.549Z,2.55
2023-05-11T06:37:56.620Z,2.20
2023-05-11T06:40:59.514Z,2.50
2023-05-11T06:44:02.055Z,2.30
2023-05-11T06:47:12.186Z,2.35
2023-05-11T06:50:14.794Z,2.70
2023-05-11T06:53:18.408Z,2.60
2023-05-11T06:56:22.154Z,2.60
2023-05-11T06:59:25.366Z,2.30
2023-05-11T07:02:28.770Z,2.90
2023-05-11T07:05:31.625Z,2.42
2023-05-11T07:08:34.565Z,2.70
2023-05-11T07:11:37.726Z,2.80
2023-05-11T07:14:40.282Z,2.40
2023-05-11T07:17:43.548Z,2.80
2023-05-11T07:20:50.438Z,3.00
2023-05-11T07:23:52.947Z,2.50
2023-05-11T07:26:57.091Z,2.70
2023-05-11T07:29:59.566Z,2.70
2023-05-11T07:33:04.043Z,2.90
2023-05-11T07:36:07.973Z,2.40
2023-05-11T07:39:10.921Z,2.60
2023-05-11T07:42:13.504Z,2.77
2023-05-11T07:45:15.998Z,2.80
2023-05-11T07:48:18.456Z,2.58
2023-05-11T07:51:21.159Z,2.60
2023-05-11T07:54:23.615Z,2.83
2023-05-11T07:57:26.325Z,3.13
2023-05-11T08:00:28.809Z,2.65
2023-05-11T08:03:31.381Z,2.58
2023-05-11T08:06:34.038Z,2.60
2023-05-11T08:09:37.052Z,2.57
2023-05-11T08:12:39.698Z,2.20
2023-05-11T08:15:42.700Z,2.47
2023-05-11T08:18:45.449Z,2.80
2023-05-11T08:21:48.386Z,2.72
2023-05-11T08:24:51.344Z,2.97
2023-05-11T08:27:53.850Z,2.70
2023-05-11T08:30:59.627Z,2.90
2023-05-11T08:34:03.107Z,2.45
2023-05-11T08:37:05.943Z,2.00
2023-05-11T08:40:12.577Z,1.90
2023-05-11T08:43:18.976Z,1.60
2023-05-11T08:46:24.045Z,2.00
2023-05-11T08:49:27.725Z,2.20
2023-05-11T08:52:30.773Z,2.42
2023-05-11T08:55:34.171Z,2.10
2023-05-11T08:58:38.531Z,1.60
2023-05-11T09:01:41.966Z,1.60
2023-05-11T09:04:48.292Z,2.22
2023-05-11T09:07:55.474Z,1.75
2023-05-11T09:10:59.381Z,2.23
2023-05-11T09:14:02.049Z,2.10
2023-05-11T09:17:04.847Z,2.53
2023-05-11T09:20:09.540Z,2.15
2023-05-11T09:23:16.896Z,2.30
2023-05-11T09:26:28.857Z,2.10
2023-05-11T09:29:32.624Z,2.23
2023-05-11T09:32:57.143Z,2.20
2023-05-11T09:36:00.479Z,1.80
2023-05-11T09:39:04.835Z,2.00
2023-05-11T09:42:18.381Z,2.20
2023-05-11T09:45:44.570Z,2.00
2023-05-11T09:49:00.198Z,1.77
2023-05-11T09:52:02.713Z,2.08
2023-05-11T09:55:10.643Z,1.95
2023-05-11T09:58:13.340Z,1.87
2023-05-11T10:01:16.745Z,1.87
2023-05-11T10:04:31.713Z,1.80
2023-05-11T10:07:35.816Z,1.45
2023-05-11T10:10:39.202Z,1.50
2023-05-11T10:13:44.075Z,1.83
2023-05-11T10:16:48.195Z,1.80
2023-05-11T10:19:51.850Z,1.70
2023-05-11T10:22:56.350Z,1.67
2023-05-11T10:25:59.155Z,1.70
2023-05-11T10:29:03.319Z,1.50
2023-05-11T10:32:07.543Z,1.93
2023-05-11T10:35:10.405Z,1.35
2023-05-11T10:38:15.166Z,2.10
2023-05-11T10:41:37.051Z,1.52
2023-05-11T10:44:44.302Z,1.57
2023-05-11T10:47:51.727Z,2.10
2023-05-11T10:51:01.903Z,2.15
2023-05-11T10:54:52.577Z,1.55
2023-05-11T10:58:10.880Z,1.60
2023-05-11T11:01:26.598Z,1.50
2023-05-11T11:04:50.068Z,1.57
2023-05-11T11:08:01.028Z,1.65
2023-05-11T11:11:46.021Z,1.75
2023-05-11T11:14:55.361Z,1.48
2023-05-11T11:18:23.822Z,1.40
2023-05-11T11:21:42.964Z,1.60
2023-05-11T11:24:46.793Z,1.40
2023-05-11T11:27:49.223Z,1.80
2023-05-11T11:31:28.273Z,1.83
2023-05-11T11:34:32.208Z,1.90
2023-05-11T11:38:02.149Z,1.60
2023-05-11T11:41:08.383Z,1.50
2023-05-11T11:44:23.096Z,1.85
2023-05-11T11:47:27.033Z,1.60
2023-05-11T11:50:29.739Z,1.50
2023-05-11T11:53:38.442Z,1.43
2023-05-11T11:56:41.580Z,1.75
2023-05-11T11:59:49.813Z,1.67
2023-05-11T12:02:53.517Z,1.42
2023-05-11T12:06:01.720Z,1.90
2023-05-11T12:09:05.442Z,2.00
2023-05-11T12:12:09.128Z,1.90
2023-05-11T12:15:29.891Z,1.40
2023-05-11T12:18:33.673Z,1.50
2023-05-11T12:21:36.194Z,1.80
2023-05-11T12:24:39.404Z,1.57
2023-05-11T12:27:48.971Z,1.70
2023-05-11T12:30:57.694Z,1.70
2023-05-11T12:34:01.608Z,1.98
2023-05-11T12:37:06.265Z,1.67
2023-05-11T12:40:11.524Z,1.30
2023-05-11T12:43:20.687Z,1.50
2023-05-11T12:46:23.830Z,1.33
2023-05-11T12:49:27.625Z,1.48
2023-05-11T12:52:30.167Z,1.30
2023-05-11T12:55:32.768Z,1.60
2023-05-11T12:58:40.055Z,1.42
2023-05-11T13:01:42.523Z,1.48
2023-05-11T13:04:46.235Z,1.30
2023-05-11T13:08:00.385Z,1.43
2023-05-11T13:11:25.625Z,1.30
2023-05-11T13:14:31.389Z,1.30
2023-05-11T13:17:36.677Z,1.27
2023-05-11T13:20:39.689Z,1.38
2023-05-11T13:23:42.305Z,1.70
2023-05-11T13:26:44.673Z,1.53
2023-05-11T13:29:47.228Z,1.40
2023-05-11T13:32:49.732Z,1.50
2023-05-11T13:35:52.202Z,1.55
2023-05-11T13:38:54.904Z,1.40
2023-05-11T13:41:57.770Z,1.60
2023-05-11T13:45:00.147Z,1.15
2023-05-11T13:48:02.816Z,1.20
2023-05-11T13:51:05.519Z,1.33
2023-05-11T13:54:08.060Z,1.10
2023-05-11T13:57:10.849Z,1.43
2023-05-11T14:00:14.739Z,1.30
2023-05-11T14:03:17.359Z,1.35
2023-05-11T14:06:21.958Z,1.50
2023-05-11T14:09:24.445Z,1.80
2023-05-11T14:12:26.932Z,1.50
2023-05-11T14:15:29.456Z,1.70
2023-05-11T14:18:32.064Z,1.75
2023-05-11T14:21:35.341Z,1.50
2023-05-11T14:24:37.856Z,1.50
2023-05-11T14:27:40.446Z,1.33
2023-05-11T14:30:43.068Z,1.33
2023-05-11T14:33:45.996Z,1.27
2023-05-11T14:36:48.852Z,1.25
2023-05-11T14:39:51.295Z,1.40
2023-05-11T14:42:54.426Z,1.40
2023-05-11T14:45:56.895Z,1.30
2023-05-11T14:48:59.352Z,1.50
2023-05-11T14:52:02.041Z,1.48
2023-05-11T14:55:05.304Z,1.40
2023-05-11T14:58:09.202Z,1.33
2023-05-11T15:01:11.770Z,1.50
2023-05-11T15:04:16.729Z,1.35
2023-05-11T15:07:19.332Z,1.27
2023-05-11T15:10:21.769Z,1.30
2023-05-11T15:13:24.311Z,1.40
2023-05-11T15:16:27.811Z,1.30
2023-05-11T15:19:30.728Z,1.10
2023-05-11T15:22:33.274Z,1.10
2023-05-11T15:25:36.852Z,1.20
2023-05-11T15:28:39.247Z,1.10
2023-05-11T15:31:41.797Z,1.73
2023-05-11T15:34:58.629Z,1.20
2023-05-11T15:38:02.486Z,1.10
2023-05-11T15:41:04.980Z,1.40
2023-05-11T15:44:07.379Z,1.40
2023-05-11T15:47:09.938Z,1.30
2023-05-11T15:50:13.085Z,1.10
2023-05-11T15:53:15.765Z,1.10
2023-05-11T15:56:19.022Z,1.23
2023-05-11T15:59:21.516Z,1.67
2023-05-11T16:02:23.990Z,1.27
2023-05-11T16:05:26.927Z,1.30
2023-05-11T16:08:29.404Z,1.50
2023-05-11T16:11:32.154Z,1.50
2023-05-11T16:14:34.971Z,1.70
2023-05-11T16:17:37.933Z,1.27
2023-05-11T16:20:40.706Z,1.50
2023-05-11T16:23:43.186Z,1.50
2023-05-11T16:26:45.644Z,1.50
2023-05-11T16:29:48.062Z,1.80
2023-05-11T16:32:50.943Z,1.80
2023-05-11T16:35:53.574Z,2.00
2023-05-11T16:38:56.020Z,1.73
2023-05-11T16:41:58.609Z,1.57
2023-05-11T16:45:01.092Z,1.70
2023-05-11T16:48:03.636Z,1.65
2023-05-11T16:51:06.238Z,1.50
2023-05-11T16:54:10.375Z,1.40
2023-05-11T16:57:12.883Z,1.30
2023-05-11T17:00:16.363Z,1.60
2023-05-11T17:03:19.694Z,1.50
2023-05-11T17:06:24.032Z,1.52
2023-05-11T17:09:26.506Z,1.40
2023-05-11T17:12:29.945Z,1.80
2023-05-11T17:15:32.468Z,1.67
2023-05-11T17:18:35.200Z,1.45
2023-05-11T17:21:38.255Z,1.45
2023-05-11T17:24:41.095Z,1.50
2023-05-11T17:27:43.610Z,1.80
2023-05-11T17:30:48.735Z,1.67
2023-05-11T17:33:51.679Z,1.55
2023-05-11T17:36:54.646Z,1.77
2023-05-11T17:39:57.396Z,1.60
2023-05-11T17:42:59.901Z,2.07
2023-05-11T17:46:05.445Z,1.60
2023-05-11T17:49:08.109Z,1.85
2023-05-11T17:52:10.504Z,1.60
2023-05-11T17:55:13.443Z,1.98
2023-05-11T17:58:16.066Z,1.77
2023-05-11T18:01:19.741Z,2.30
2023-05-11T18:04:22.488Z,1.92
2023-05-11T18:07:26.047Z,1.90
2023-05-11T18:10:28.531Z,2.08
2023-05-11T18:13:31.666Z,2.07
2023-05-11T18:16:34.839Z,2.00
2023-05-11T18:19:37.344Z,1.95
2023-05-11T18:22:40.136Z,1.60
2023-05-11T18:25:42.810Z,1.88
2023-05-11T18:28:45.336Z,2.10
2023-05-11T18:31:48.578Z,1.90
2023-05-11T18:34:51.081Z,1.25
2023-05-11T18:37:53.701Z,1.60
2023-05-11T18:40:56.494Z,1.45
2023-05-11T18:43:58.921Z,1.30
2023-05-11T18:47:01.539Z,1.60
2023-05-11T18:50:04.362Z,1.52
2023-05-11T18:53:06.824Z,1.30
2023-05-11T18:56:11.114Z,1.50
2023-05-11T18:59:13.936Z,1.50
2023-05-11T19:02:16.980Z,1.63
2023-05-11T19:05:19.478Z,1.38
2023-05-11T19:08:22.176Z,1.60
2023-05-11T19:11:25.631Z,1.10
2023-05-11T19:14:28.638Z,1.13
2023-05-11T19:17:31.265Z,1.37
2023-05-11T19:20:34.709Z,1.40
2023-05-11T19:23:37.307Z,1.50
2023-05-11T19:26:39.992Z,1.40
2023-05-11T19:29:43.014Z,1.40
2023-05-11T19:32:45.772Z,1.50
2023-05-11T19:35:48.451Z,1.60
2023-05-11T19:38:52.413Z,1.50
2023-05-11T19:41:55.457Z,1.00
2023-05-11T19:44:58.258Z,1.47
2023-05-11T19:48:01.033Z,1.30
2023-05-11T19:51:03.695Z,1.70
2023-05-11T19:54:06.431Z,1.40
2023-05-11T19:57:08.889Z,1.48
2023-05-11T20:00:11.849Z,1.60
2023-05-11T20:03:14.477Z,1.70
2023-05-11T20:06:17.637Z,1.58
2023-05-11T20:09:20.103Z,1.40
2023-05-11T20:12:23.962Z,1.80
2023-05-11T20:15:26.604Z,1.60
2023-05-11T20:18:29.067Z,1.67
2023-05-11T20:21:32.189Z,2.10
2023-05-11T20:24:34.569Z,1.77
2023-05-11T20:27:36.998Z,1.73
2023-05-11T20:30:39.442Z,1.70
2023-05-11T20:36:53.750Z,1.60
2023-05-11T20:39:56.186Z,1.88
2023-05-11T20:42:58.667Z,1.70
2023-05-11T20:46:03.405Z,1.57
2023-05-11T20:49:06.232Z,1.73
2023-05-11T20:52:09.287Z,1.50
2023-05-11T20:55:12.124Z,1.90
2023-05-11T20:58:14.581Z,1.90
2023-05-11T21:01:17.040Z,1.70
2023-05-11T21:04:19.773Z,1.60
2023-05-11T21:07:26.794Z,2.10
2023-05-11T21:10:29.242Z,1.90
2023-05-11T21:13:31.700Z,1.90
2023-05-11T21:16:34.179Z,1.90
2023-05-11T21:19:36.667Z,1.60
2023-05-11T21:22:39.222Z,1.88
2023-05-11T21:25:41.719Z,1.60
2023-05-11T21:28:44.196Z,2.25
2023-05-11T21:31:47.095Z,2.00
2023-05-11T21:34:50.209Z,1.70
2023-05-11T21:37:52.713Z,1.80
2023-05-11T21:40:55.572Z,2.10
2023-05-11T21:43:58.036Z,1.95
2023-05-11T21:47:00.431Z,1.70
2023-05-11T21:50:03.070Z,1.80
2023-05-11T21:53:05.830Z,1.83
2023-05-11T21:56:09.901Z,1.80
2023-05-11T21:59:12.410Z,1.90
2023-05-11T22:02:15.110Z,1.67
2023-05-11T22:05:17.860Z,2.30
2023-05-11T22:08:20.297Z,1.67
2023-05-11T22:11:22.789Z,1.75
2023-05-11T22:14:25.334Z,1.90
2023-05-11T22:17:27.929Z,1.90
2023-05-11T22:20:31.744Z,1.93
2023-05-11T22:23:35.384Z,1.85
2023-05-11T22:26:37.825Z,1.88
2023-05-11T22:29:40.337Z,1.90
2023-05-11T22:32:42.724Z,1.80
2023-05-11T22:35:45.978Z,1.80
2023-05-11T22:38:48.363Z,1.75
2023-05-11T22:41:50.834Z,1.88
2023-05-11T22:44:53.529Z,1.75
2023-05-11T22:47:56.036Z,2.00
2023-05-11T22:50:58.466Z,1.90
2023-05-11T22:54:01.128Z,2.13
2023-05-11T22:57:04.242Z,2.20
2023-05-11T23:00:09.650Z,2.00
2023-05-11T23:03:12.343Z,1.67
2023-05-11T23:06:14.898Z,1.70
2023-05-11T23:09:17.330Z,1.98
2023-05-11T23:12:19.981Z,2.17
2023-05-11T23:15:22.423Z,2.10
2023-05-11T23:18:25.076Z,2.10
2023-05-11T23:21:28.078Z,1.73
2023-05-11T23:24:30.592Z,2.05
2023-05-11T23:27:33.064Z,2.00
2023-05-11T23:30:35.555Z,2.30
2023-05-11T23:33:38.024Z,1.77
2023-05-11T23:36:40.556Z,1.90
2023-05-11T23:39:43.116Z,2.15
2023-05-11T23:42:45.517Z,1.73
2023-05-11T23:45:47.980Z,1.98
2023-05-11T23:48:50.641Z,2.10
2023-05-11T23:51:54.104Z,2.40
2023-05-11T23:54:56.552Z,2.03
2023-05-11T23:57:59.106Z,2.00
